sensor_id;sensor_type;location;lat;lon;timestamp;pressure;altitude;pressure_sealevel;temperature;humidity
70343;BME280;57767;42.068;24.752;2023-04-16T00:00:07;98400.34;;;12.16;57.99
70343;BME280;57767;42.068;24.752;2023-04-16T00:01:10;98403.56;;;12.18;57.96
70343;BME280;57767;42.068;24.752;2023-04-16T00:02:13;98402.31;;;12.21;57.93
70343;BME280;57767;42.068;24.752;2023-04-16T00:03:15;98404.38;;;12.19;57.99
70343;BME280;57767;42.068;24.752;2023-04-16T00:04:17;98406.22;;;12.18;58.38
70343;BME280;57767;42.068;24.752;2023-04-16T00:05:19;98401.16;;;12.17;58.00
70343;BME280;57767;42.068;24.752;2023-04-16T00:06:22;98410.13;;;12.16;57.99
70343;BME280;57767;42.068;24.752;2023-04-16T00:07:23;98404.81;;;12.16;57.83
70343;BME280;57767;42.068;24.752;2023-04-16T00:08:25;98401.63;;;12.14;58.15
70343;BME280;57767;42.068;24.752;2023-04-16T00:09:27;98405.09;;;12.14;57.71
70343;BME280;57767;42.068;24.752;2023-04-16T00:10:29;98401.16;;;12.17;57.94
70343;BME280;57767;42.068;24.752;2023-04-16T00:11:30;98400.34;;;12.16;57.83
70343;BME280;57767;42.068;24.752;2023-04-16T00:12:32;98404.06;;;12.15;57.90
70343;BME280;57767;42.068;24.752;2023-04-16T00:13:34;98409.78;;;12.12;57.64
70343;BME280;57767;42.068;24.752;2023-04-16T00:14:36;98402.53;;;12.08;58.28
70343;BME280;57767;42.068;24.752;2023-04-16T00:15:38;98365.09;;;11.81;57.63
70343;BME280;57767;42.068;24.752;2023-04-16T00:16:39;98405.28;;;12.01;57.46
70343;BME280;57767;42.068;24.752;2023-04-16T00:17:41;98399.78;;;12.03;57.87
70343;BME280;57767;42.068;24.752;2023-04-16T00:18:43;98397.13;;;12.03;57.82
70343;BME280;57767;42.068;24.752;2023-04-16T00:19:45;98414.16;;;12.07;56.83
70343;BME280;57767;42.068;24.752;2023-04-16T00:20:47;98396.78;;;11.99;57.35
70343;BME280;57767;42.068;24.752;2023-04-16T00:21:49;98402.44;;;12.03;57.93
70343;BME280;57767;42.068;24.752;2023-04-16T00:22:51;98411.13;;;12.03;58.29
70343;BME280;57767;42.068;24.752;2023-04-16T00:23:53;98413.56;;;12.05;59.32
70343;BME280;57767;42.068;24.752;2023-04-16T00:24:55;98412.53;;;12.06;58.64
70343;BME280;57767;42.068;24.752;2023-04-16T00:25:56;98405.53;;;12.00;59.16
70343;BME280;57767;42.068;24.752;2023-04-16T00:27:00;98412.75;;;12.04;58.63
70343;BME280;57767;42.068;24.752;2023-04-16T00:28:03;98408.03;;;12.06;59.10
70343;BME280;57767;42.068;24.752;2023-04-16T00:29:05;98413.69;;;12.10;58.87
70343;BME280;57767;42.068;24.752;2023-04-16T00:30:08;98414.94;;;12.07;58.81
70343;BME280;57767;42.068;24.752;2023-04-16T00:31:10;98418.75;;;12.11;58.50
70343;BME280;57767;42.068;24.752;2023-04-16T00:32:11;98411.72;;;12.05;58.01
70343;BME280;57767;42.068;24.752;2023-04-16T00:33:13;98420.84;;;12.09;58.76
70343;BME280;57767;42.068;24.752;2023-04-16T00:34:16;98422.22;;;12.12;58.68
70343;BME280;57767;42.068;24.752;2023-04-16T00:35:18;98424.88;;;12.12;58.68
70343;BME280;57767;42.068;24.752;2023-04-16T00:36:19;98427.06;;;12.15;58.31
70343;BME280;57767;42.068;24.752;2023-04-16T00:37:21;98429.47;;;12.16;58.94
70343;BME280;57767;42.068;24.752;2023-04-16T00:38:27;98430.53;;;12.15;58.89
70343;BME280;57767;42.068;24.752;2023-04-16T00:39:30;98432.69;;;12.18;58.09
70343;BME280;57767;42.068;24.752;2023-04-16T00:40:32;98428.66;;;12.16;57.41
70343;BME280;57767;42.068;24.752;2023-04-16T00:41:34;98437.75;;;12.20;57.01
70343;BME280;57767;42.068;24.752;2023-04-16T00:42:36;98431.44;;;12.21;56.88
70343;BME280;57767;42.068;24.752;2023-04-16T00:43:38;98430.84;;;12.19;56.84
70343;BME280;57767;42.068;24.752;2023-04-16T00:44:40;98432.00;;;12.23;57.07
70343;BME280;57767;42.068;24.752;2023-04-16T00:45:42;98426.72;;;12.23;57.26
70343;BME280;57767;42.068;24.752;2023-04-16T00:46:44;98423.50;;;12.21;56.96
70343;BME280;57767;42.068;24.752;2023-04-16T00:47:46;98420.72;;;12.16;57.07
70343;BME280;57767;42.068;24.752;2023-04-16T00:48:49;98421.28;;;12.18;56.96
70343;BME280;57767;42.068;24.752;2023-04-16T00:49:52;98423.50;;;12.21;57.40
70343;BME280;57767;42.068;24.752;2023-04-16T00:50:54;98430.16;;;12.24;56.79
70343;BME280;57767;42.068;24.752;2023-04-16T00:51:56;98425.91;;;12.23;57.27
70343;BME280;57767;42.068;24.752;2023-04-16T00:52:58;98433.63;;;12.24;57.14
70343;BME280;57767;42.068;24.752;2023-04-16T00:54:00;98430.97;;;12.24;57.05
70343;BME280;57767;42.068;24.752;2023-04-16T00:55:03;98430.53;;;12.27;57.47
70343;BME280;57767;42.068;24.752;2023-04-16T00:56:07;98426.28;;;12.26;57.26
70343;BME280;57767;42.068;24.752;2023-04-16T00:57:12;98429.50;;;12.28;57.05
70343;BME280;57767;42.068;24.752;2023-04-16T00:58:15;98424.19;;;12.28;57.16
70343;BME280;57767;42.068;24.752;2023-04-16T00:59:17;98416.50;;;12.27;57.11
70343;BME280;57767;42.068;24.752;2023-04-16T01:00:19;98421.31;;;12.30;57.41
70343;BME280;57767;42.068;24.752;2023-04-16T01:01:21;98425.56;;;12.31;57.28
70343;BME280;57767;42.068;24.752;2023-04-16T01:02:23;98422.91;;;12.31;57.27
70343;BME280;57767;42.068;24.752;2023-04-16T01:03:35;98419.47;;;12.30;57.18
70343;BME280;57767;42.068;24.752;2023-04-16T01:04:38;98414.50;;;12.22;58.07
70343;BME280;57767;42.068;24.752;2023-04-16T01:05:39;98419.69;;;12.29;58.34
70343;BME280;57767;42.068;24.752;2023-04-16T01:06:41;98401.72;;;12.19;58.14
70343;BME280;57767;42.068;24.752;2023-04-16T01:07:43;98417.28;;;12.27;58.07
70343;BME280;57767;42.068;24.752;2023-04-16T01:08:46;98414.88;;;12.26;58.59
70343;BME280;57767;42.068;24.752;2023-04-16T01:09:48;98415.09;;;12.24;58.19
70343;BME280;57767;42.068;24.752;2023-04-16T01:10:50;98414.50;;;12.22;57.86
70343;BME280;57767;42.068;24.752;2023-04-16T01:11:51;98414.97;;;12.19;58.32
70343;BME280;57767;42.068;24.752;2023-04-16T01:12:53;98416.59;;;12.20;58.76
70343;BME280;57767;42.068;24.752;2023-04-16T01:13:55;98421.19;;;12.13;58.48
70343;BME280;57767;42.068;24.752;2023-04-16T01:14:57;98417.72;;;12.12;58.20
70343;BME280;57767;42.068;24.752;2023-04-16T01:16:00;98416.34;;;12.10;58.24
70343;BME280;57767;42.068;24.752;2023-04-16T01:17:02;98423.13;;;12.17;59.11
70343;BME280;57767;42.068;24.752;2023-04-16T01:18:17;98427.63;;;12.17;58.93
70343;BME280;57767;42.068;24.752;2023-04-16T01:19:19;98423.34;;;12.16;58.70
70343;BME280;57767;42.068;24.752;2023-04-16T01:20:21;98418.88;;;12.16;57.38
70343;BME280;57767;42.068;24.752;2023-04-16T01:21:23;98431.88;;;12.18;58.53
70343;BME280;57767;42.068;24.752;2023-04-16T01:22:26;98424.97;;;12.17;58.70
70343;BME280;57767;42.068;24.752;2023-04-16T01:23:28;98424.41;;;12.15;58.87
70343;BME280;57767;42.068;24.752;2023-04-16T01:24:30;98426.59;;;12.18;58.80
70343;BME280;57767;42.068;24.752;2023-04-16T01:25:32;98417.03;;;12.17;58.19
70343;BME280;57767;42.068;24.752;2023-04-16T01:26:34;98420.16;;;12.14;57.83
70343;BME280;57767;42.068;24.752;2023-04-16T01:27:36;98431.06;;;12.17;58.67
70343;BME280;57767;42.068;24.752;2023-04-16T01:28:38;98434.53;;;12.18;58.64
70343;BME280;57767;42.068;24.752;2023-04-16T01:29:39;98419.69;;;12.17;58.58
70343;BME280;57767;42.068;24.752;2023-04-16T01:30:41;98423.50;;;12.21;58.47
70343;BME280;57767;42.068;24.752;2023-04-16T01:31:43;98423.50;;;12.21;57.93
70343;BME280;57767;42.068;24.752;2023-04-16T01:32:47;98414.97;;;12.19;58.32
70343;BME280;57767;42.068;24.752;2023-04-16T01:33:49;98409.00;;;12.12;58.31
70343;BME280;57767;42.068;24.752;2023-04-16T01:34:51;98418.66;;;12.18;58.43
70343;BME280;57767;42.068;24.752;2023-04-16T01:35:52;98419.44;;;12.18;58.40
70343;BME280;57767;42.068;24.752;2023-04-16T01:36:54;98421.06;;;12.19;57.35
70343;BME280;57767;42.068;24.752;2023-04-16T01:37:56;98419.22;;;12.20;57.69
70343;BME280;57767;42.068;24.752;2023-04-16T01:38:57;98420.25;;;12.19;57.61
70343;BME280;57767;42.068;24.752;2023-04-16T01:39:59;98412.53;;;12.17;57.77
70343;BME280;57767;42.068;24.752;2023-04-16T01:41:01;98411.41;;;12.13;57.57
70343;BME280;57767;42.068;24.752;2023-04-16T01:42:03;98413.47;;;12.11;57.91
70343;BME280;57767;42.068;24.752;2023-04-16T01:43:04;98424.88;;;12.12;58.50
70343;BME280;57767;42.068;24.752;2023-04-16T01:44:06;98418.53;;;12.13;58.16
70343;BME280;57767;42.068;24.752;2023-04-16T01:45:08;98419.78;;;12.10;58.43
70343;BME280;57767;42.068;24.752;2023-04-16T01:46:17;98427.75;;;12.10;58.12
70343;BME280;57767;42.068;24.752;2023-04-16T01:47:21;98420.25;;;12.07;58.43
70343;BME280;57767;42.068;24.752;2023-04-16T01:48:22;98413.56;;;12.05;57.69
70343;BME280;57767;42.068;24.752;2023-04-16T01:49:24;98409.06;;;12.05;57.87
70343;BME280;57767;42.068;24.752;2023-04-16T01:50:26;98418.41;;;12.08;57.73
70343;BME280;57767;42.068;24.752;2023-04-16T01:51:28;98417.38;;;12.09;57.52
70343;BME280;57767;42.068;24.752;2023-04-16T01:52:30;98417.38;;;12.09;57.79
70343;BME280;57767;42.068;24.752;2023-04-16T01:53:32;98406.56;;;12.10;57.19
70343;BME280;57767;42.068;24.752;2023-04-16T01:54:37;98406.56;;;12.10;57.40
70343;BME280;57767;42.068;24.752;2023-04-16T01:55:39;98405.19;;;12.08;57.74
70343;BME280;57767;42.068;24.752;2023-04-16T01:56:40;98398.28;;;12.07;57.75
70343;BME280;57767;42.068;24.752;2023-04-16T01:57:42;98405.19;;;12.08;57.68
70343;BME280;57767;42.068;24.752;2023-04-16T01:58:47;98398.28;;;12.07;57.91
70343;BME280;57767;42.068;24.752;2023-04-16T01:59:48;98393.78;;;12.07;58.35
70343;BME280;57767;42.068;24.752;2023-04-16T02:00:50;98406.78;;;12.09;57.87
70343;BME280;57767;42.068;24.752;2023-04-16T02:01:52;98394.00;;;12.06;57.53
70343;BME280;57767;42.068;24.752;2023-04-16T02:02:54;98396.44;;;12.07;57.47
70343;BME280;57767;42.068;24.752;2023-04-16T02:03:56;98399.66;;;12.09;57.74
70343;BME280;57767;42.068;24.752;2023-04-16T02:04:58;98398.03;;;12.08;57.34
70343;BME280;57767;42.068;24.752;2023-04-16T02:06:00;98394.38;;;12.09;57.33
70343;BME280;57767;42.068;24.752;2023-04-16T02:07:03;98393.44;;;12.04;57.09
70343;BME280;57767;42.068;24.752;2023-04-16T02:08:05;98396.44;;;12.07;57.07
70343;BME280;57767;42.068;24.752;2023-04-16T02:09:06;98392.75;;;12.08;56.75
70343;BME280;57767;42.068;24.752;2023-04-16T02:10:09;98406.56;;;12.10;56.51
70343;BME280;57767;42.068;24.752;2023-04-16T02:11:10;98404.16;;;12.09;56.52
70343;BME280;57767;42.068;24.752;2023-04-16T02:12:12;98407.81;;;12.08;56.27
70343;BME280;57767;42.068;24.752;2023-04-16T02:13:15;98400.34;;;12.05;56.96
70343;BME280;57767;42.068;24.752;2023-04-16T02:14:17;98403.78;;;12.05;57.06
70343;BME280;57767;42.068;24.752;2023-04-16T02:15:19;98398.72;;;12.04;57.01
70343;BME280;57767;42.068;24.752;2023-04-16T02:16:20;98398.97;;;12.02;57.51
70343;BME280;57767;42.068;24.752;2023-04-16T02:17:22;98398.03;;;11.97;57.51
70343;BME280;57767;42.068;24.752;2023-04-16T02:18:24;98400.69;;;11.97;57.97
70343;BME280;57767;42.068;24.752;2023-04-16T02:19:26;98396.41;;;11.96;57.60
70343;BME280;57767;42.068;24.752;2023-04-16T02:20:28;98394.22;;;11.93;57.70
70343;BME280;57767;42.068;24.752;2023-04-16T02:21:29;98403.78;;;11.94;57.65
70343;BME280;57767;42.068;24.752;2023-04-16T02:22:32;98405.59;;;11.93;57.78
70343;BME280;57767;42.068;24.752;2023-04-16T02:23:34;98403.19;;;11.92;58.15
70343;BME280;57767;42.068;24.752;2023-04-16T02:24:36;98402.38;;;11.91;58.27
70343;BME280;57767;42.068;24.752;2023-04-16T02:25:38;98391.78;;;11.79;58.74
70343;BME280;57767;42.068;24.752;2023-04-16T02:26:41;98405.72;;;11.87;58.73
70343;BME280;57767;42.068;24.752;2023-04-16T02:27:43;98405.28;;;11.90;58.81
70343;BME280;57767;42.068;24.752;2023-04-16T02:28:45;98376.66;;;11.68;58.73
70343;BME280;57767;42.068;24.752;2023-04-16T02:29:46;98412.03;;;11.86;58.86
70343;BME280;57767;42.068;24.752;2023-04-16T02:30:48;98407.78;;;11.84;58.94
70343;BME280;57767;42.068;24.752;2023-04-16T02:31:50;98412.50;;;11.82;58.90
70343;BME280;57767;42.068;24.752;2023-04-16T02:32:52;98411.47;;;11.83;58.23
70343;BME280;57767;42.068;24.752;2023-04-16T02:33:54;98403.38;;;11.78;58.33
70343;BME280;57767;42.068;24.752;2023-04-16T02:34:55;98410.88;;;11.81;58.37
70343;BME280;57767;42.068;24.752;2023-04-16T02:35:57;98407.09;;;11.77;59.18
70343;BME280;57767;42.068;24.752;2023-04-16T02:36:59;98408.13;;;11.76;59.09
70343;BME280;57767;42.068;24.752;2023-04-16T02:38:02;98409.56;;;11.72;58.56
70343;BME280;57767;42.068;24.752;2023-04-16T02:39:04;98401.03;;;11.70;59.33
70343;BME280;57767;42.068;24.752;2023-04-16T02:40:06;98412.88;;;11.68;59.45
70343;BME280;57767;42.068;24.752;2023-04-16T02:41:08;98405.63;;;11.63;59.14
70343;BME280;57767;42.068;24.752;2023-04-16T02:42:10;98406.06;;;11.60;59.75
70343;BME280;57767;42.068;24.752;2023-04-16T02:43:12;98408.34;;;11.57;59.81
70343;BME280;57767;42.068;24.752;2023-04-16T02:44:14;98405.00;;;11.49;60.17
70343;BME280;57767;42.068;24.752;2023-04-16T02:45:16;98408.47;;;11.50;60.08
70343;BME280;57767;42.068;24.752;2023-04-16T02:46:17;98392.91;;;11.42;59.42
70343;BME280;57767;42.068;24.752;2023-04-16T02:47:19;98401.41;;;11.44;59.75
70343;BME280;57767;42.068;24.752;2023-04-16T02:48:21;98407.13;;;11.41;60.27
70343;BME280;57767;42.068;24.752;2023-04-16T02:49:23;98408.41;;;11.38;60.17
70343;BME280;57767;42.068;24.752;2023-04-16T02:50:25;98398.94;;;11.31;60.49
70343;BME280;57767;42.068;24.752;2023-04-16T02:51:27;98410.91;;;11.33;60.63
70343;BME280;57767;42.068;24.752;2023-04-16T02:52:29;98404.81;;;11.33;59.70
70343;BME280;57767;42.068;24.752;2023-04-16T02:53:33;98412.53;;;11.34;60.07
70343;BME280;57767;42.068;24.752;2023-04-16T02:54:35;98411.72;;;11.34;59.83
70343;BME280;57767;42.068;24.752;2023-04-16T02:55:36;98412.97;;;11.31;59.61
70343;BME280;57767;42.068;24.752;2023-04-16T02:56:38;98413.56;;;11.33;59.70
70343;BME280;57767;42.068;24.752;2023-04-16T02:57:40;98419.06;;;11.32;60.17
70343;BME280;57767;42.068;24.752;2023-04-16T02:58:43;98419.50;;;11.29;60.34
70343;BME280;57767;42.068;24.752;2023-04-16T02:59:44;98417.88;;;11.28;60.10
70343;BME280;57767;42.068;24.752;2023-04-16T03:00:46;98415.56;;;11.20;60.83
70343;BME280;57767;42.068;24.752;2023-04-16T03:01:48;98417.38;;;11.19;61.00
70343;BME280;57767;42.068;24.752;2023-04-16T03:02:50;98412.91;;;11.20;60.50
70343;BME280;57767;42.068;24.752;2023-04-16T03:03:52;98421.44;;;11.22;60.66
70343;BME280;57767;42.068;24.752;2023-04-16T03:04:54;98410.28;;;11.20;60.70
70343;BME280;57767;42.068;24.752;2023-04-16T03:05:56;98418.78;;;11.22;61.49
70343;BME280;57767;42.068;24.752;2023-04-16T03:06:57;98414.75;;;11.19;61.69
70343;BME280;57767;42.068;24.752;2023-04-16T03:07:59;98406.59;;;11.21;60.93
70343;BME280;57767;42.068;24.752;2023-04-16T03:09:01;98408.81;;;11.24;61.42
70343;BME280;57767;42.068;24.752;2023-04-16T03:10:04;98410.63;;;11.23;60.84
70343;BME280;57767;42.068;24.752;2023-04-16T03:11:05;98410.63;;;11.23;61.46
70343;BME280;57767;42.068;24.752;2023-04-16T03:12:07;98400.72;;;11.19;61.26
70343;BME280;57767;42.068;24.752;2023-04-16T03:13:09;98409.84;;;11.23;61.46
70343;BME280;57767;42.068;24.752;2023-04-16T03:14:11;98407.19;;;11.23;61.46
70343;BME280;57767;42.068;24.752;2023-04-16T03:15:13;98408.22;;;11.22;61.67
70343;BME280;57767;42.068;24.752;2023-04-16T03:16:14;98414.53;;;11.21;61.76
70343;BME280;57767;42.068;24.752;2023-04-16T03:17:16;98413.94;;;11.19;61.84
70343;BME280;57767;42.068;24.752;2023-04-16T03:18:18;98400.59;;;11.13;61.80
70343;BME280;57767;42.068;24.752;2023-04-16T03:19:20;98408.53;;;11.13;61.96
70343;BME280;57767;42.068;24.752;2023-04-16T03:20:22;98414.63;;;11.14;61.75
70343;BME280;57767;42.068;24.752;2023-04-16T03:21:24;98413.22;;;11.11;62.40
70343;BME280;57767;42.068;24.752;2023-04-16T03:22:26;98414.25;;;11.10;62.83
70343;BME280;57767;42.068;24.752;2023-04-16T03:23:28;98410.06;;;11.03;62.23
70343;BME280;57767;42.068;24.752;2023-04-16T03:24:29;98415.50;;;11.08;62.01
70343;BME280;57767;42.068;24.752;2023-04-16T03:25:31;98418.94;;;11.08;62.60
70343;BME280;57767;42.068;24.752;2023-04-16T03:26:33;98419.38;;;11.05;62.19
70343;BME280;57767;42.068;24.752;2023-04-16T03:27:35;98428.06;;;11.12;62.60
70343;BME280;57767;42.068;24.752;2023-04-16T03:28:36;98429.66;;;11.13;62.26
70343;BME280;57767;42.068;24.752;2023-04-16T03:29:38;98429.41;;;11.15;61.83
70343;BME280;57767;42.068;24.752;2023-04-16T03:30:40;98424.00;;;11.10;62.23
70343;BME280;57767;42.068;24.752;2023-04-16T03:31:42;98439.19;;;11.14;62.89
70343;BME280;57767;42.068;24.752;2023-04-16T03:32:43;98437.50;;;11.20;62.79
70343;BME280;57767;42.068;24.752;2023-04-16T03:33:45;98438.31;;;11.21;62.43
70343;BME280;57767;42.068;24.752;2023-04-16T03:34:47;98447.25;;;11.20;62.30
70343;BME280;57767;42.068;24.752;2023-04-16T03:35:58;98437.50;;;11.20;62.42
70343;BME280;57767;42.068;24.752;2023-04-16T03:37:00;98441.75;;;11.21;62.94
70343;BME280;57767;42.068;24.752;2023-04-16T03:38:01;98436.47;;;11.21;62.37
70343;BME280;57767;42.068;24.752;2023-04-16T03:39:03;98437.50;;;11.20;62.49
70343;BME280;57767;42.068;24.752;2023-04-16T03:40:05;98437.50;;;11.20;63.26
70343;BME280;57767;42.068;24.752;2023-04-16T03:41:07;98433.91;;;11.14;63.47
70343;BME280;57767;42.068;24.752;2023-04-16T03:42:09;98441.59;;;11.16;63.87
70343;BME280;57767;42.068;24.752;2023-04-16T03:43:11;98445.28;;;11.15;63.73
70343;BME280;57767;42.068;24.752;2023-04-16T03:44:13;98442.88;;;11.13;63.90
70343;BME280;57767;42.068;24.752;2023-04-16T03:45:14;98443.69;;;11.14;63.91
70343;BME280;57767;42.068;24.752;2023-04-16T03:46:16;98444.47;;;11.14;64.22
70343;BME280;57767;42.068;24.752;2023-04-16T03:47:21;98451.16;;;11.17;63.58
70343;BME280;57767;42.068;24.752;2023-04-16T03:48:23;98447.47;;;11.18;63.92
70343;BME280;57767;42.068;24.752;2023-04-16T03:49:25;98452.13;;;11.23;63.20
70343;BME280;57767;42.068;24.752;2023-04-16T03:50:26;98444.41;;;11.21;63.44
70343;BME280;57767;42.068;24.752;2023-04-16T03:51:28;98451.91;;;11.24;63.88
70343;BME280;57767;42.068;24.752;2023-04-16T03:52:30;98450.88;;;11.25;63.59
70343;BME280;57767;42.068;24.752;2023-04-16T03:53:32;98442.56;;;11.22;62.83
70343;BME280;57767;42.068;24.752;2023-04-16T03:54:33;98442.94;;;11.25;62.72
70343;BME280;57767;42.068;24.752;2023-04-16T03:55:35;98448.34;;;11.30;62.13
70343;BME280;57767;42.068;24.752;2023-04-16T03:56:39;98444.91;;;11.30;62.04
70343;BME280;57767;42.068;24.752;2023-04-16T03:57:40;98444.25;;;11.34;61.69
70343;BME280;57767;42.068;24.752;2023-04-16T03:58:42;98445.66;;;11.37;61.15
70343;BME280;57767;42.068;24.752;2023-04-16T03:59:44;98443.34;;;11.40;61.72
70343;BME280;57767;42.068;24.752;2023-04-16T04:00:46;98448.56;;;11.47;61.35
70343;BME280;57767;42.068;24.752;2023-04-16T04:01:47;98445.47;;;11.50;61.51
70343;BME280;57767;42.068;24.752;2023-04-16T04:02:49;98444.88;;;11.48;61.13
70343;BME280;57767;42.068;24.752;2023-04-16T04:03:51;98446.84;;;11.53;60.89
70343;BME280;57767;42.068;24.752;2023-04-16T04:04:53;98449.03;;;11.56;60.83
70343;BME280;57767;42.068;24.752;2023-04-16T04:05:55;98450.44;;;11.58;60.97
70343;BME280;57767;42.068;24.752;2023-04-16T04:06:57;98453.22;;;11.63;61.54
70343;BME280;57767;42.068;24.752;2023-04-16T04:07:59;98442.88;;;11.62;60.36
70343;BME280;57767;42.068;24.752;2023-04-16T04:09:01;98452.53;;;11.68;60.38
70343;BME280;57767;42.068;24.752;2023-04-16T04:10:02;98434.34;;;11.60;59.82
70343;BME280;57767;42.068;24.752;2023-04-16T04:11:04;98456.13;;;11.73;59.77
70343;BME280;57767;42.068;24.752;2023-04-16T04:12:06;98455.09;;;11.74;59.87
70343;BME280;57767;42.068;24.752;2023-04-16T04:13:08;98457.91;;;11.79;60.08
70343;BME280;57767;42.068;24.752;2023-04-16T04:14:10;98455.25;;;11.79;60.13
70343;BME280;57767;42.068;24.752;2023-04-16T04:15:12;98468.47;;;11.79;60.13
70343;BME280;57767;42.068;24.752;2023-04-16T04:16:14;98459.50;;;11.80;60.64
70343;BME280;57767;42.068;24.752;2023-04-16T04:17:16;98446.59;;;11.72;60.18
70343;BME280;57767;42.068;24.752;2023-04-16T04:18:18;98460.31;;;11.81;59.85
70343;BME280;57767;42.068;24.752;2023-04-16T04:19:20;98459.50;;;11.80;60.29
70343;BME280;57767;42.068;24.752;2023-04-16T04:20:22;98467.16;;;11.89;59.71
70343;BME280;57767;42.068;24.752;2023-04-16T04:21:23;98464.84;;;11.92;59.99
70343;BME280;57767;42.068;24.752;2023-04-16T04:22:26;98463.00;;;11.93;60.69
70343;BME280;57767;42.068;24.752;2023-04-16T04:23:28;98461.97;;;11.94;61.28
70343;BME280;57767;42.068;24.752;2023-04-16T04:24:29;98466.81;;;11.97;60.66
70343;BME280;57767;42.068;24.752;2023-04-16T04:25:31;98462.69;;;12.01;60.66
70343;BME280;57767;42.068;24.752;2023-04-16T04:26:33;98460.88;;;12.01;60.69
70343;BME280;57767;42.068;24.752;2023-04-16T04:27:35;98448.88;;;11.99;60.88
70343;BME280;57767;42.068;24.752;2023-04-16T04:28:37;98453.47;;;12.03;60.53
70343;BME280;57767;42.068;24.752;2023-04-16T04:29:38;98450.59;;;12.05;60.84
70343;BME280;57767;42.068;24.752;2023-04-16T04:30:40;98443.16;;;12.02;60.66
70343;BME280;57767;42.068;24.752;2023-04-16T04:31:42;98459.72;;;12.09;60.09
70343;BME280;57767;42.068;24.752;2023-04-16T04:32:44;98448.09;;;12.10;60.02
70343;BME280;57767;42.068;24.752;2023-04-16T04:33:46;98447.97;;;12.05;60.14
70343;BME280;57767;42.068;24.752;2023-04-16T04:34:47;98457.88;;;12.09;60.03
70343;BME280;57767;42.068;24.752;2023-04-16T04:35:49;98460.88;;;12.13;60.14
70343;BME280;57767;42.068;24.752;2023-04-16T04:36:51;98459.84;;;12.14;59.25
70343;BME280;57767;42.068;24.752;2023-04-16T04:37:53;98451.91;;;12.14;60.07
70343;BME280;57767;42.068;24.752;2023-04-16T04:38:54;98457.22;;;12.14;59.79
70343;BME280;57767;42.068;24.752;2023-04-16T04:39:56;98459.03;;;12.13;59.63
70343;BME280;57767;42.068;24.752;2023-04-16T04:40:58;98452.38;;;12.11;59.56
70343;BME280;57767;42.068;24.752;2023-04-16T04:42:00;98455.59;;;12.13;59.81
70343;BME280;57767;42.068;24.752;2023-04-16T04:43:03;98453.53;;;12.15;59.87
70343;BME280;57767;42.068;24.752;2023-04-16T04:44:05;98457.75;;;12.16;59.93
70343;BME280;57767;42.068;24.752;2023-04-16T04:45:08;98455.69;;;12.18;60.24
70343;BME280;57767;42.068;24.752;2023-04-16T04:46:10;98451.69;;;12.15;60.56
70343;BME280;57767;42.068;24.752;2023-04-16T04:47:12;98450.88;;;12.15;61.40
70343;BME280;57767;42.068;24.752;2023-04-16T04:48:14;98442.22;;;12.08;61.88
70343;BME280;57767;42.068;24.752;2023-04-16T04:49:16;98452.72;;;12.14;61.44
70343;BME280;57767;42.068;24.752;2023-04-16T04:50:18;98446.84;;;12.12;61.46
70343;BME280;57767;42.068;24.752;2023-04-16T04:51:20;98448.69;;;12.12;60.39
70343;BME280;57767;42.068;24.752;2023-04-16T04:52:21;98452.59;;;12.09;60.72
70343;BME280;57767;42.068;24.752;2023-04-16T04:53:23;98441.63;;;12.06;60.66
70343;BME280;57767;42.068;24.752;2023-04-16T04:54:25;98457.06;;;12.09;61.35
70343;BME280;57767;42.068;24.752;2023-04-16T04:55:27;98452.81;;;12.08;61.95
70343;BME280;57767;42.068;24.752;2023-04-16T04:56:28;98462.94;;;12.11;61.67
70343;BME280;57767;42.068;24.752;2023-04-16T04:57:30;98456.84;;;12.10;62.55
70343;BME280;57767;42.068;24.752;2023-04-16T04:58:32;98468.59;;;12.14;62.03
70343;BME280;57767;42.068;24.752;2023-04-16T04:59:34;98465.69;;;12.16;63.35
70343;BME280;57767;42.068;24.752;2023-04-16T05:00:35;98466.75;;;12.15;63.25
70343;BME280;57767;42.068;24.752;2023-04-16T05:01:37;98463.63;;;12.18;63.01
70343;BME280;57767;42.068;24.752;2023-04-16T05:02:39;98463.06;;;12.16;62.79
70343;BME280;57767;42.068;24.752;2023-04-16T05:03:41;98453.97;;;12.12;63.23
70343;BME280;57767;42.068;24.752;2023-04-16T05:04:43;98465.97;;;12.26;63.06
70343;BME280;57767;42.068;24.752;2023-04-16T05:05:45;98467.13;;;12.30;62.78
70343;BME280;57767;42.068;24.752;2023-04-16T05:06:47;98462.84;;;12.29;63.84
70343;BME280;57767;42.068;24.752;2023-04-16T05:07:49;98469.44;;;12.38;62.91
70343;BME280;57767;42.068;24.752;2023-04-16T05:08:51;98471.50;;;12.36;63.99
70343;BME280;57767;42.068;24.752;2023-04-16T05:09:52;98468.41;;;12.39;63.59
70343;BME280;57767;42.068;24.752;2023-04-16T05:10:54;98475.88;;;12.42;62.04
70343;BME280;57767;42.068;24.752;2023-04-16T05:11:56;98477.84;;;12.47;63.19
70343;BME280;57767;42.068;24.752;2023-04-16T05:12:58;98472.31;;;12.48;64.08
70343;BME280;57767;42.068;24.752;2023-04-16T05:13:59;98481.66;;;12.51;63.40
70343;BME280;57767;42.068;24.752;2023-04-16T05:15:01;98474.75;;;12.50;64.02
70343;BME280;57767;42.068;24.752;2023-04-16T05:16:03;98483.59;;;12.55;63.31
70343;BME280;57767;42.068;24.752;2023-04-16T05:17:05;98485.56;;;12.60;62.41
70343;BME280;57767;42.068;24.752;2023-04-16T05:18:08;98487.53;;;12.65;63.01
70343;BME280;57767;42.068;24.752;2023-04-16T05:19:10;98478.88;;;12.69;63.04
70343;BME280;57767;42.068;24.752;2023-04-16T05:20:12;98482.13;;;12.71;63.20
70343;BME280;57767;42.068;24.752;2023-04-16T05:21:14;98473.50;;;12.76;63.65
70343;BME280;57767;42.068;24.752;2023-04-16T05:22:15;98466.56;;;12.75;63.80
70343;BME280;57767;42.068;24.752;2023-04-16T05:23:19;98472.56;;;12.82;62.37
70343;BME280;57767;42.068;24.752;2023-04-16T05:24:21;98472.91;;;12.85;61.82